sensor_id;sensor_type;location;lat;lon;timestamp;pressure;altitude;pressure_sealevel;temperature
68939;BMP180;59064;45.294;11.816;2023-03-26T00:00:11;100992.20;;;10.42
68939;BMP180;59064;45.294;11.816;2023-03-26T00:02:39;100996.80;;;10.40
68939;BMP180;59064;45.294;11.816;2023-03-26T00:05:06;100990.20;;;10.50
68939;BMP180;59064;45.294;11.816;2023-03-26T00:07:31;100988.60;;;10.48
68939;BMP180;59064;45.294;11.816;2023-03-26T00:09:57;100984.60;;;10.40
68939;BMP180;59064;45.294;11.816;2023-03-26T00:12:24;100984.20;;;10.40
68939;BMP180;59064;45.294;11.816;2023-03-26T00:14:50;100986.00;;;10.30
68939;BMP180;59064;45.294;11.816;2023-03-26T00:17:17;100987.60;;;10.30
68939;BMP180;59064;45.294;11.816;2023-03-26T00:19:43;100990.00;;;10.30
68939;BMP180;59064;45.294;11.816;2023-03-26T00:22:08;100988.00;;;10.24
68939;BMP180;59064;45.294;11.816;2023-03-26T00:24:39;100986.80;;;10.20
68939;BMP180;59064;45.294;11.816;2023-03-26T00:27:04;100985.60;;;10.20
68939;BMP180;59064;45.294;11.816;2023-03-26T00:29:30;100991.80;;;10.10
68939;BMP180;59064;45.294;11.816;2023-03-26T00:31:58;101000.00;;;10.10
68939;BMP180;59064;45.294;11.816;2023-03-26T00:34:23;101013.60;;;10.10
68939;BMP180;59064;45.294;11.816;2023-03-26T00:36:50;101015.60;;;10.10
68939;BMP180;59064;45.294;11.816;2023-03-26T00:39:19;101008.20;;;10.00
68939;BMP180;59064;45.294;11.816;2023-03-26T00:41:46;101010.60;;;10.00
68939;BMP180;59064;45.294;11.816;2023-03-26T00:44:11;101011.20;;;10.00
68939;BMP180;59064;45.294;11.816;2023-03-26T00:46:37;101010.60;;;9.98
68939;BMP180;59064;45.294;11.816;2023-03-26T00:49:03;101007.60;;;9.96
68939;BMP180;59064;45.294;11.816;2023-03-26T00:51:30;101003.20;;;10.00
68939;BMP180;59064;45.294;11.816;2023-03-26T00:53:56;101001.40;;;10.00
68939;BMP180;59064;45.294;11.816;2023-03-26T00:56:22;101005.20;;;10.00
68939;BMP180;59064;45.294;11.816;2023-03-26T00:58:48;101003.00;;;10.00
68939;BMP180;59064;45.294;11.816;2023-03-26T01:01:24;101005.00;;;10.00
68939;BMP180;59064;45.294;11.816;2023-03-26T01:03:56;101001.00;;;9.90
68939;BMP180;59064;45.294;11.816;2023-03-26T01:06:28;101002.40;;;9.90
68939;BMP180;59064;45.294;11.816;2023-03-26T01:08:58;100998.20;;;9.80
68939;BMP180;59064;45.294;11.816;2023-03-26T01:11:33;100999.60;;;9.80
68939;BMP180;59064;45.294;11.816;2023-03-26T01:14:09;101001.60;;;9.80
68939;BMP180;59064;45.294;11.816;2023-03-26T01:16:36;101000.00;;;9.80
68939;BMP180;59064;45.294;11.816;2023-03-26T01:19:05;100998.00;;;9.80
68939;BMP180;59064;45.294;11.816;2023-03-26T01:21:34;100998.60;;;9.80
68939;BMP180;59064;45.294;11.816;2023-03-26T01:24:07;100992.80;;;9.80
68939;BMP180;59064;45.294;11.816;2023-03-26T01:26:54;100988.60;;;9.72
68939;BMP180;59064;45.294;11.816;2023-03-26T01:29:30;100977.20;;;9.70
68939;BMP180;59064;45.294;11.816;2023-03-26T01:35:05;100961.40;;;9.60
68939;BMP180;59064;45.294;11.816;2023-03-26T01:40:45;100941.40;;;9.50
68939;BMP180;59064;45.294;11.816;2023-03-26T01:46:00;100935.20;;;9.40
68939;BMP180;59064;45.294;11.816;2023-03-26T01:48:39;100929.80;;;9.40
68939;BMP180;59064;45.294;11.816;2023-03-26T01:51:07;100923.60;;;9.30
68939;BMP180;59064;45.294;11.816;2023-03-26T01:53:46;100912.00;;;9.20
68939;BMP180;59064;45.294;11.816;2023-03-26T01:56:27;100908.60;;;9.20
68939;BMP180;59064;45.294;11.816;2023-03-26T02:02:28;100908.80;;;9.10
68939;BMP180;59064;45.294;11.816;2023-03-26T02:05:13;100909.40;;;9.10
68939;BMP180;59064;45.294;11.816;2023-03-26T02:08:04;100913.20;;;9.10
68939;BMP180;59064;45.294;11.816;2023-03-26T02:10:35;100912.20;;;9.06
68939;BMP180;59064;45.294;11.816;2023-03-26T02:13:03;100905.80;;;8.98
68939;BMP180;59064;45.294;11.816;2023-03-26T02:15:31;100907.40;;;8.90
68939;BMP180;59064;45.294;11.816;2023-03-26T02:17:56;100912.40;;;8.80
68939;BMP180;59064;45.294;11.816;2023-03-26T02:20:24;100913.20;;;8.84
68939;BMP180;59064;45.294;11.816;2023-03-26T02:22:58;100912.20;;;8.90
68939;BMP180;59064;45.294;11.816;2023-03-26T02:25:24;100908.40;;;8.90
68939;BMP180;59064;45.294;11.816;2023-03-26T02:27:51;100908.80;;;9.00
68939;BMP180;59064;45.294;11.816;2023-03-26T02:30:23;100903.20;;;9.10
68939;BMP180;59064;45.294;11.816;2023-03-26T02:32:51;100901.40;;;9.10
68939;BMP180;59064;45.294;11.816;2023-03-26T02:35:18;100906.00;;;9.10
68939;BMP180;59064;45.294;11.816;2023-03-26T02:37:45;100897.20;;;9.16
68939;BMP180;59064;45.294;11.816;2023-03-26T02:40:11;100895.00;;;9.20
68939;BMP180;59064;45.294;11.816;2023-03-26T02:42:37;100903.20;;;9.30
68939;BMP180;59064;45.294;11.816;2023-03-26T02:45:04;100903.00;;;9.30
68939;BMP180;59064;45.294;11.816;2023-03-26T02:47:31;100896.60;;;9.30
68939;BMP180;59064;45.294;11.816;2023-03-26T02:49:58;100896.00;;;9.30
68939;BMP180;59064;45.294;11.816;2023-03-26T02:52:23;100904.40;;;9.30
68939;BMP180;59064;45.294;11.816;2023-03-26T02:54:49;100904.40;;;9.20
68939;BMP180;59064;45.294;11.816;2023-03-26T02:57:15;100903.20;;;9.20
68939;BMP180;59064;45.294;11.816;2023-03-26T02:59:41;100908.00;;;9.20
68939;BMP180;59064;45.294;11.816;2023-03-26T03:02:06;100906.60;;;9.16
68939;BMP180;59064;45.294;11.816;2023-03-26T03:04:32;100909.20;;;9.20
68939;BMP180;59064;45.294;11.816;2023-03-26T03:06:57;100904.00;;;9.20
68939;BMP180;59064;45.294;11.816;2023-03-26T03:09:24;100900.80;;;9.10
68939;BMP180;59064;45.294;11.816;2023-03-26T03:11:50;100905.20;;;9.00
68939;BMP180;59064;45.294;11.816;2023-03-26T03:14:18;100906.80;;;9.00
68939;BMP180;59064;45.294;11.816;2023-03-26T03:16:44;100908.00;;;8.98
68939;BMP180;59064;45.294;11.816;2023-03-26T03:19:11;100915.80;;;9.00
68939;BMP180;59064;45.294;11.816;2023-03-26T03:21:38;100917.00;;;9.00
68939;BMP180;59064;45.294;11.816;2023-03-26T03:24:04;100925.20;;;9.00
68939;BMP180;59064;45.294;11.816;2023-03-26T03:26:30;100930.20;;;9.00
68939;BMP180;59064;45.294;11.816;2023-03-26T03:28:56;100933.60;;;8.92
68939;BMP180;59064;45.294;11.816;2023-03-26T03:31:23;100929.80;;;8.84
68939;BMP180;59064;45.294;11.816;2023-03-26T03:33:50;100928.80;;;8.80
68939;BMP180;59064;45.294;11.816;2023-03-26T03:36:17;100925.20;;;8.90
68939;BMP180;59064;45.294;11.816;2023-03-26T03:38:46;100922.60;;;8.92
68939;BMP180;59064;45.294;11.816;2023-03-26T03:41:12;100917.80;;;8.90
68939;BMP180;59064;45.294;11.816;2023-03-26T03:43:38;100917.60;;;8.90
68939;BMP180;59064;45.294;11.816;2023-03-26T03:46:04;100918.20;;;8.80
68939;BMP180;59064;45.294;11.816;2023-03-26T03:48:29;100918.80;;;8.80
68939;BMP180;59064;45.294;11.816;2023-03-26T03:50:55;100923.60;;;8.80
68939;BMP180;59064;45.294;11.816;2023-03-26T03:53:22;100922.40;;;8.70
68939;BMP180;59064;45.294;11.816;2023-03-26T03:55:54;100916.40;;;8.60
68939;BMP180;59064;45.294;11.816;2023-03-26T03:58:24;100912.60;;;8.60
68939;BMP180;59064;45.294;11.816;2023-03-26T04:00:53;100909.80;;;8.60
68939;BMP180;59064;45.294;11.816;2023-03-26T04:03:25;100909.80;;;8.58
68939;BMP180;59064;45.294;11.816;2023-03-26T04:05:52;100914.60;;;8.60
68939;BMP180;59064;45.294;11.816;2023-03-26T04:08:19;100917.20;;;8.60
68939;BMP180;59064;45.294;11.816;2023-03-26T04:10:45;100907.60;;;8.60
68939;BMP180;59064;45.294;11.816;2023-03-26T04:13:11;100906.60;;;8.60
68939;BMP180;59064;45.294;11.816;2023-03-26T04:15:38;100905.80;;;8.60
68939;BMP180;59064;45.294;11.816;2023-03-26T04:18:03;100895.20;;;8.50
68939;BMP180;59064;45.294;11.816;2023-03-26T04:20:35;100883.00;;;8.50
68939;BMP180;59064;45.294;11.816;2023-03-26T04:23:01;100872.80;;;8.50
68939;BMP180;59064;45.294;11.816;2023-03-26T04:25:27;100874.80;;;8.46
68939;BMP180;59064;45.294;11.816;2023-03-26T04:27:55;100872.60;;;8.40
68939;BMP180;59064;45.294;11.816;2023-03-26T04:30:22;100875.20;;;8.40
68939;BMP180;59064;45.294;11.816;2023-03-26T04:32:49;100885.60;;;8.30
68939;BMP180;59064;45.294;11.816;2023-03-26T04:35:16;100883.20;;;8.30
68939;BMP180;59064;45.294;11.816;2023-03-26T04:37:43;100892.40;;;8.20
68939;BMP180;59064;45.294;11.816;2023-03-26T04:40:19;100890.20;;;8.20
68939;BMP180;59064;45.294;11.816;2023-03-26T04:42:45;100883.00;;;8.20
68939;BMP180;59064;45.294;11.816;2023-03-26T04:45:16;100881.60;;;8.20
68939;BMP180;59064;45.294;11.816;2023-03-26T04:47:42;100878.60;;;8.20
68939;BMP180;59064;45.294;11.816;2023-03-26T04:50:10;100874.80;;;8.20
68939;BMP180;59064;45.294;11.816;2023-03-26T04:52:37;100874.80;;;8.20
68939;BMP180;59064;45.294;11.816;2023-03-26T04:55:05;100876.40;;;8.20
68939;BMP180;59064;45.294;11.816;2023-03-26T04:57:38;100883.20;;;8.30
68939;BMP180;59064;45.294;11.816;2023-03-26T05:00:08;100888.60;;;8.30
68939;BMP180;59064;45.294;11.816;2023-03-26T05:02:40;100883.60;;;8.30
68939;BMP180;59064;45.294;11.816;2023-03-26T05:05:07;100881.20;;;8.30
68939;BMP180;59064;45.294;11.816;2023-03-26T05:07:33;100872.20;;;8.30
68939;BMP180;59064;45.294;11.816;2023-03-26T05:09:58;100866.80;;;8.30
68939;BMP180;59064;45.294;11.816;2023-03-26T05:12:27;100859.00;;;8.38
68939;BMP180;59064;45.294;11.816;2023-03-26T05:14:53;100852.60;;;8.40
68939;BMP180;59064;45.294;11.816;2023-03-26T05:17:19;100854.40;;;8.40
68939;BMP180;59064;45.294;11.816;2023-03-26T05:19:48;100851.00;;;8.40
68939;BMP180;59064;45.294;11.816;2023-03-26T05:22:13;100855.60;;;8.40
68939;BMP180;59064;45.294;11.816;2023-03-26T05:24:39;100860.20;;;8.40
68939;BMP180;59064;45.294;11.816;2023-03-26T05:27:04;100859.40;;;8.40
68939;BMP180;59064;45.294;11.816;2023-03-26T05:29:31;100857.00;;;8.48
68939;BMP180;59064;45.294;11.816;2023-03-26T05:31:57;100862.40;;;8.48
68939;BMP180;59064;45.294;11.816;2023-03-26T05:34:22;100865.00;;;8.60
68939;BMP180;59064;45.294;11.816;2023-03-26T05:36:51;100866.00;;;8.70
68939;BMP180;59064;45.294;11.816;2023-03-26T05:39:16;100870.00;;;8.80
68939;BMP180;59064;45.294;11.816;2023-03-26T05:41:42;100871.80;;;8.82
68939;BMP180;59064;45.294;11.816;2023-03-26T05:44:07;100870.80;;;8.90
68939;BMP180;59064;45.294;11.816;2023-03-26T05:46:33;100870.60;;;9.00
68939;BMP180;59064;45.294;11.816;2023-03-26T05:48:59;100863.80;;;9.10
68939;BMP180;59064;45.294;11.816;2023-03-26T05:51:25;100862.00;;;9.20
68939;BMP180;59064;45.294;11.816;2023-03-26T05:53:50;100862.40;;;9.30
68939;BMP180;59064;45.294;11.816;2023-03-26T05:56:16;100864.80;;;9.40
68939;BMP180;59064;45.294;11.816;2023-03-26T05:58:42;100862.20;;;9.40
68939;BMP180;59064;45.294;11.816;2023-03-26T06:01:10;100868.00;;;9.50
68939;BMP180;59064;45.294;11.816;2023-03-26T06:03:42;100866.60;;;9.60
68939;BMP180;59064;45.294;11.816;2023-03-26T06:06:19;100869.80;;;9.70
68939;BMP180;59064;45.294;11.816;2023-03-26T06:08:50;100872.60;;;9.82
68939;BMP180;59064;45.294;11.816;2023-03-26T06:11:17;100881.40;;;9.96
68939;BMP180;59064;45.294;11.816;2023-03-26T06:13:43;100882.00;;;10.10
68939;BMP180;59064;45.294;11.816;2023-03-26T06:16:11;100884.80;;;10.20
68939;BMP180;59064;45.294;11.816;2023-03-26T06:18:37;100887.40;;;10.30
68939;BMP180;59064;45.294;11.816;2023-03-26T06:21:04;100883.80;;;10.30
68939;BMP180;59064;45.294;11.816;2023-03-26T06:23:30;100895.60;;;10.40
68939;BMP180;59064;45.294;11.816;2023-03-26T06:25:56;100894.00;;;10.50
68939;BMP180;59064;45.294;11.816;2023-03-26T06:28:22;100887.20;;;10.60
68939;BMP180;59064;45.294;11.816;2023-03-26T06:30:48;100886.60;;;10.70
68939;BMP180;59064;45.294;11.816;2023-03-26T06:33:14;100882.00;;;10.80
68939;BMP180;59064;45.294;11.816;2023-03-26T06:35:40;100884.80;;;10.90
68939;BMP180;59064;45.294;11.816;2023-03-26T06:38:07;100882.80;;;11.02
68939;BMP180;59064;45.294;11.816;2023-03-26T06:40:33;100887.40;;;11.20
68939;BMP180;59064;45.294;11.816;2023-03-26T06:42:59;100879.00;;;11.20
68939;BMP180;59064;45.294;11.816;2023-03-26T06:45:26;100870.80;;;11.30
68939;BMP180;59064;45.294;11.816;2023-03-26T06:47:52;100877.20;;;11.30
68939;BMP180;59064;45.294;11.816;2023-03-26T06:50:18;100879.40;;;11.20
68939;BMP180;59064;45.294;11.816;2023-03-26T06:52:43;100889.60;;;11.20
68939;BMP180;59064;45.294;11.816;2023-03-26T06:55:09;100894.80;;;11.20
68939;BMP180;59064;45.294;11.816;2023-03-26T06:57:35;100893.40;;;11.20
68939;BMP180;59064;45.294;11.816;2023-03-26T07:00:01;100883.00;;;11.24
68939;BMP180;59064;45.294;11.816;2023-03-26T07:02:28;100873.60;;;11.30
68939;BMP180;59064;45.294;11.816;2023-03-26T07:04:53;100879.40;;;11.40
68939;BMP180;59064;45.294;11.816;2023-03-26T07:07:19;100871.60;;;11.40
68939;BMP180;59064;45.294;11.816;2023-03-26T07:09:46;100868.80;;;11.42
68939;BMP180;59064;45.294;11.816;2023-03-26T07:12:13;100866.40;;;11.50
68939;BMP180;59064;45.294;11.816;2023-03-26T07:14:39;100871.20;;;11.60
68939;BMP180;59064;45.294;11.816;2023-03-26T07:17:05;100870.20;;;11.70
68939;BMP180;59064;45.294;11.816;2023-03-26T07:19:31;100870.40;;;11.80
68939;BMP180;59064;45.294;11.816;2023-03-26T07:21:57;100870.40;;;12.00
68939;BMP180;59064;45.294;11.816;2023-03-26T07:24:23;100867.40;;;12.10
68939;BMP180;59064;45.294;11.816;2023-03-26T07:30:23;100875.40;;;12.40
68939;BMP180;59064;45.294;11.816;2023-03-26T07:33:07;100871.60;;;12.60
68939;BMP180;59064;45.294;11.816;2023-03-26T07:35:42;100874.20;;;12.70
68939;BMP180;59064;45.294;11.816;2023-03-26T07:41:07;100862.60;;;12.90
68939;BMP180;59064;45.294;11.816;2023-03-26T07:44:01;100861.80;;;12.98
68939;BMP180;59064;45.294;11.816;2023-03-26T07:46:31;100856.20;;;13.20
68939;BMP180;59064;45.294;11.816;2023-03-26T07:49:02;100851.00;;;13.30
68939;BMP180;59064;45.294;11.816;2023-03-26T07:51:29;100855.00;;;13.40
68939;BMP180;59064;45.294;11.816;2023-03-26T07:53:55;100844.40;;;13.56
68939;BMP180;59064;45.294;11.816;2023-03-26T07:56:37;100838.20;;;13.60
68939;BMP180;59064;45.294;11.816;2023-03-26T07:59:28;100830.20;;;13.60
68939;BMP180;59064;45.294;11.816;2023-03-26T08:02:18;100825.80;;;13.68
68939;BMP180;59064;45.294;11.816;2023-03-26T08:07:50;100806.60;;;13.70
68939;BMP180;59064;45.294;11.816;2023-03-26T08:16:06;100791.60;;;13.70
68939;BMP180;59064;45.294;11.816;2023-03-26T08:24:03;100782.40;;;14.00
68939;BMP180;59064;45.294;11.816;2023-03-26T08:32:04;100775.20;;;14.50
68939;BMP180;59064;45.294;11.816;2023-03-26T08:34:32;100768.40;;;14.56
68939;BMP180;59064;45.294;11.816;2023-03-26T08:36:58;100766.80;;;14.70
68939;BMP180;59064;45.294;11.816;2023-03-26T08:39:23;100761.00;;;14.82
68939;BMP180;59064;45.294;11.816;2023-03-26T08:50:45;100756.20;;;15.30
68939;BMP180;59064;45.294;11.816;2023-03-26T08:56:10;100760.20;;;15.20
68939;BMP180;59064;45.294;11.816;2023-03-26T09:15:33;100727.40;;;15.38
68939;BMP180;59064;45.294;11.816;2023-03-26T09:24:08;100726.60;;;15.50
68939;BMP180;59064;45.294;11.816;2023-03-26T09:27:07;100725.00;;;15.50
68939;BMP180;59064;45.294;11.816;2023-03-26T09:41:22;100692.60;;;16.80
68939;BMP180;59064;45.294;11.816;2023-03-26T09:44:26;100698.60;;;17.40
68939;BMP180;59064;45.294;11.816;2023-03-26T09:55:18;100689.80;;;18.30
68939;BMP180;59064;45.294;11.816;2023-03-26T10:00:20;100670.80;;;18.40
68939;BMP180;59064;45.294;11.816;2023-03-26T10:03:28;100670.40;;;18.30
68939;BMP180;59064;45.294;11.816;2023-03-26T10:06:21;100664.00;;;18.10
68939;BMP180;59064;45.294;11.816;2023-03-26T10:17:45;100655.80;;;18.08
68939;BMP180;59064;45.294;11.816;2023-03-26T10:22:59;100650.40;;;17.80
68939;BMP180;59064;45.294;11.816;2023-03-26T10:25:42;100657.00;;;17.70
68939;BMP180;59064;45.294;11.816;2023-03-26T10:33:58;100661.40;;;17.88
68939;BMP180;59064;45.294;11.816;2023-03-26T10:39:37;100659.40;;;18.10
68939;BMP180;59064;45.294;11.816;2023-03-26T10:45:02;100667.80;;;18.20
68939;BMP180;59064;45.294;11.816;2023-03-26T10:56:11;100660.00;;;18.60
68939;BMP180;59064;45.294;11.816;2023-03-26T10:58:39;100654.60;;;18.88
68939;BMP180;59064;45.294;11.816;2023-03-26T11:01:11;100645.00;;;19.10
68939;BMP180;59064;45.294;11.816;2023-03-26T11:03:46;100638.20;;;19.20
68939;BMP180;59064;45.294;11.816;2023-03-26T11:09:23;100617.60;;;18.82
68939;BMP180;59064;45.294;11.816;2023-03-26T11:12:26;100616.20;;;19.00
68939;BMP180;59064;45.294;11.816;2023-03-26T11:20:08;100583.80;;;18.20
68939;BMP180;59064;45.294;11.816;2023-03-26T11:23:07;100592.40;;;18.18
68939;BMP180;59064;45.294;11.816;2023-03-26T11:28:32;100583.00;;;18.50
68939;BMP180;59064;45.294;11.816;2023-03-26T11:33:59;100594.40;;;18.60
68939;BMP180;59064;45.294;11.816;2023-03-26T11:36:49;100596.60;;;18.46
68939;BMP180;59064;45.294;11.816;2023-03-26T11:39:29;100591.00;;;18.10
68939;BMP180;59064;45.294;11.816;2023-03-26T11:42:06;100580.40;;;18.82
68939;BMP180;59064;45.294;11.816;2023-03-26T11:44:41;100579.60;;;19.76
68939;BMP180;59064;45.294;11.816;2023-03-26T11:47:10;100573.20;;;20.44
68939;BMP180;59064;45.294;11.816;2023-03-26T11:49:40;100574.20;;;21.12
68939;BMP180;59064;45.294;11.816;2023-03-26T11:52:10;100573.60;;;21.30
68939;BMP180;59064;45.294;11.816;2023-03-26T11:54:36;100562.60;;;21.40
68939;BMP180;59064;45.294;11.816;2023-03-26T11:57:17;100553.20;;;21.74
68939;BMP180;59064;45.294;11.816;2023-03-26T12:02:30;100537.80;;;21.66
68939;BMP180;59064;45.294;11.816;2023-03-26T12:05:22;100539.00;;;21.52
68939;BMP180;59064;45.294;11.816;2023-03-26T12:07:57;100520.80;;;21.08
68939;BMP180;59064;45.294;11.816;2023-03-26T12:10:32;100508.20;;;20.24
68939;BMP180;59064;45.294;11.816;2023-03-26T12:15:57;100518.80;;;20.74
68939;BMP180;59064;45.294;11.816;2023-03-26T12:18:26;100525.80;;;21.36
68939;BMP180;59064;45.294;11.816;2023-03-26T12:21:16;100532.60;;;22.10
68939;BMP180;59064;45.294;11.816;2023-03-26T12:26:41;100531.20;;;22.90
68939;BMP180;59064;45.294;11.816;2023-03-26T12:29:10;100515.00;;;23.10
68939;BMP180;59064;45.294;11.816;2023-03-26T12:34:19;100482.80;;;22.20
68939;BMP180;59064;45.294;11.816;2023-03-26T12:36:56;100481.40;;;22.46
68939;BMP180;59064;45.294;11.816;2023-03-26T12:39:38;100473.00;;;22.60
68939;BMP180;59064;45.294;11.816;2023-03-26T12:42:24;100462.40;;;22.50
68939;BMP180;59064;45.294;11.816;2023-03-26T12:44:51;100450.40;;;22.70
68939;BMP180;59064;45.294;11.816;2023-03-26T12:47:21;100446.40;;;23.02
68939;BMP180;59064;45.294;11.816;2023-03-26T12:49:49;100439.80;;;23.16
68939;BMP180;59064;45.294;11.816;2023-03-26T12:55:04;100429.80;;;23.10
68939;BMP180;59064;45.294;11.816;2023-03-26T13:03:26;100420.00;;;24.40
68939;BMP180;59064;45.294;11.816;2023-03-26T13:06:22;100416.20;;;24.40
68939;BMP180;59064;45.294;11.816;2023-03-26T13:09:30;100421.80;;;24.30
68939;BMP180;59064;45.294;11.816;2023-03-26T13:20:07;100396.20;;;23.72
68939;BMP180;59064;45.294;11.816;2023-03-26T13:23:01;100387.80;;;23.68
68939;BMP180;59064;45.294;11.816;2023-03-26T13:33:43;100378.00;;;23.30
68939;BMP180;59064;45.294;11.816;2023-03-26T13:47:19;100344.60;;;22.40
68939;BMP180;59064;45.294;11.816;2023-03-26T13:50:13;100342.60;;;22.48
68939;BMP180;59064;45.294;11.816;2023-03-26T13:52:48;100326.20;;;22.94
68939;BMP180;59064;45.294;11.816;2023-03-26T13:55:32;100314.80;;;23.54
68939;BMP180;59064;45.294;11.816;2023-03-26T14:01:27;100300.80;;;23.10
68939;BMP180;59064;45.294;11.816;2023-03-26T14:08:53;100275.40;;;21.94
68939;BMP180;59064;45.294;11.816;2023-03-26T14:11:34;100274.40;;;21.66
68939;BMP180;59064;45.294;11.816;2023-03-26T14:14:09;100272.60;;;21.16
68939;BMP180;59064;45.294;11.816;2023-03-26T14:16:45;100270.80;;;20.66
68939;BMP180;59064;45.294;11.816;2023-03-26T14:22:11;100251.40;;;19.90
68939;BMP180;59064;45.294;11.816;2023-03-26T14:24:49;100241.20;;;19.60
68939;BMP180;59064;45.294;11.816;2023-03-26T14:27:43;100235.40;;;19.28
68939;BMP180;59064;45.294;11.816;2023-03-26T14:35:53;100219.80;;;18.40
68939;BMP180;59064;45.294;11.816;2023-03-26T14:41:49;100204.40;;;17.80
68939;BMP180;59064;45.294;11.816;2023-03-26T14:47:09;100190.60;;;17.20
68939;BMP180;59064;45.294;11.816;2023-03-26T14:55:05;100163.60;;;16.70
68939;BMP180;59064;45.294;11.816;2023-03-26T14:57:57;100153.60;;;16.60
68939;BMP180;59064;45.294;11.816;2023-03-26T15:12:03;100135.60;;;16.40
68939;BMP180;59064;45.294;11.816;2023-03-26T15:14:53;100118.00;;;16.40
68939;BMP180;59064;45.294;11.816;2023-03-26T15:26:05;100080.00;;;16.30
68939;BMP180;59064;45.294;11.816;2023-03-26T15:28:55;100070.00;;;16.20
68939;BMP180;59064;45.294;11.816;2023-03-26T15:42:43;100025.60;;;15.80
68939;BMP180;59064;45.294;11.816;2023-03-26T16:04:15;100019.80;;;15.00
68939;BMP180;59064;45.294;11.816;2023-03-26T16:07:13;100009.80;;;14.90
68939;BMP180;59064;45.294;11.816;2023-03-26T16:13:13;99984.60;;;14.60
68939;BMP180;59064;45.294;11.816;2023-03-26T16:15:39;99977.40;;;14.50
68939;BMP180;59064;45.294;11.816;2023-03-26T16:20:53;99970.40;;;14.30
68939;BMP180;59064;45.294;11.816;2023-03-26T16:23:32;99982.80;;;14.20
68939;BMP180;59064;45.294;11.816;2023-03-26T16:28:36;100001.00;;;14.00
68939;BMP180;59064;45.294;11.816;2023-03-26T16:31:32;100003.20;;;13.90
68939;BMP180;59064;45.294;11.816;2023-03-26T16:36:36;100011.60;;;13.60
68939;BMP180;59064;45.294;11.816;2023-03-26T16:52:43;100027.80;;;12.90
68939;BMP180;59064;45.294;11.816;2023-03-26T17:03:23;100025.60;;;12.64
68939;BMP180;59064;45.294;11.816;2023-03-26T17:08:34;100031.60;;;12.50
68939;BMP180;59064;45.294;11.816;2023-03-26T17:16:33;100032.80;;;12.30
68939;BMP180;59064;45.294;11.816;2023-03-26T17:19:32;100013.80;;;12.30
68939;BMP180;59064;45.294;11.816;2023-03-26T17:22:07;99988.80;;;12.30
68939;BMP180;59064;45.294;11.816;2023-03-26T17:24:41;99976.20;;;12.20
68939;BMP180;59064;45.294;11.816;2023-03-26T17:27:38;99982.00;;;12.20
68939;BMP180;59064;45.294;11.816;2023-03-26T17:30:32;99986.40;;;12.18
68939;BMP180;59064;45.294;11.816;2023-03-26T17:35:45;99978.60;;;12.10
68939;BMP180;59064;45.294;11.816;2023-03-26T17:40:54;99981.40;;;12.10
68939;BMP180;59064;45.294;11.816;2023-03-26T17:45:58;100003.40;;;12.10
68939;BMP180;59064;45.294;11.816;2023-03-26T17:48:26;100005.00;;;12.10
68939;BMP180;59064;45.294;11.816;2023-03-26T17:50:56;100004.60;;;12.10
68939;BMP180;59064;45.294;11.816;2023-03-26T17:53:30;100010.40;;;12.10
68939;BMP180;59064;45.294;11.816;2023-03-26T17:56:11;100009.20;;;12.10
68939;BMP180;59064;45.294;11.816;2023-03-26T17:58:44;100007.40;;;12.10
68939;BMP180;59064;45.294;11.816;2023-03-26T18:01:26;100015.80;;;12.10
68939;BMP180;59064;45.294;11.816;2023-03-26T18:03:56;100031.40;;;12.00
68939;BMP180;59064;45.294;11.816;2023-03-26T18:06:32;100043.60;;;11.72
68939;BMP180;59064;45.294;11.816;2023-03-26T18:09:55;100075.40;;;11.40
68939;BMP180;59064;45.294;11.816;2023-03-26T18:17:03;100082.80;;;10.60
68939;BMP180;59064;45.294;11.816;2023-03-26T18:19:45;100064.00;;;10.44
68939;BMP180;59064;45.294;11.816;2023-03-26T18:22:17;100050.20;;;10.30
68939;BMP180;59064;45.294;11.816;2023-03-26T18:24:44;100043.20;;;10.20
68939;BMP180;59064;45.294;11.816;2023-03-26T18:27:12;100034.00;;;10.14
68939;BMP180;59064;45.294;11.816;2023-03-26T18:32:22;100027.40;;;10.08
68939;BMP180;59064;45.294;11.816;2023-03-26T18:35:16;100019.00;;;10.00
68939;BMP180;59064;45.294;11.816;2023-03-26T18:37:45;100010.20;;;10.00
68939;BMP180;59064;45.294;11.816;2023-03-26T18:40:14;100017.00;;;9.90
68939;BMP180;59064;45.294;11.816;2023-03-26T18:42:51;100015.40;;;9.92
68939;BMP180;59064;45.294;11.816;2023-03-26T18:45:25;100024.80;;;9.90
68939;BMP180;59064;45.294;11.816;2023-03-26T18:47:53;100026.60;;;9.90
68939;BMP180;59064;45.294;11.816;2023-03-26T18:52:58;100044.00;;;10.00
68939;BMP180;59064;45.294;11.816;2023-03-26T18:55:32;100049.20;;;10.00
68939;BMP180;59064;45.294;11.816;2023-03-26T18:58:34;100056.40;;;10.00
68939;BMP180;59064;45.294;11.816;2023-03-26T19:01:05;100051.40;;;10.00
68939;BMP180;59064;45.294;11.816;2023-03-26T19:03:38;100051.20;;;10.00
68939;BMP180;59064;45.294;11.816;2023-03-26T19:06:10;100056.40;;;10.00
68939;BMP180;59064;45.294;11.816;2023-03-26T19:08:38;100066.00;;;9.90
68939;BMP180;59064;45.294;11.816;2023-03-26T19:11:08;100074.00;;;9.90
68939;BMP180;59064;45.294;11.816;2023-03-26T19:13:37;100071.20;;;9.90
68939;BMP180;59064;45.294;11.816;2023-03-26T19:16:25;100074.80;;;9.90
68939;BMP180;59064;45.294;11.816;2023-03-26T19:18:57;100059.80;;;9.90
68939;BMP180;59064;45.294;11.816;2023-03-26T19:21:24;100030.60;;;9.82
68939;BMP180;59064;45.294;11.816;2023-03-26T19:23:50;100003.40;;;9.80
68939;BMP180;59064;45.294;11.816;2023-03-26T19:26:16;99982.20;;;9.80
68939;BMP180;59064;45.294;11.816;2023-03-26T19:28:47;99926.40;;;9.80
68939;BMP180;59064;45.294;11.816;2023-03-26T19:31:25;99902.40;;;9.72
68939;BMP180;59064;45.294;11.816;2023-03-26T19:33:57;99929.40;;;9.70
68939;BMP180;59064;45.294;11.816;2023-03-26T19:36:25;99963.00;;;9.68
68939;BMP180;59064;45.294;11.816;2023-03-26T19:41:41;99939.60;;;9.62
68939;BMP180;59064;45.294;11.816;2023-03-26T19:44:27;99958.60;;;9.64